Time;durP1;ratioP1;P1;durP2;ratioP2;P2;SDS_P1;SDS_P2;PMS_P1;PMS_P2;Temp;Humidity;BMP_temperature;BMP_pressure;BME280_temperature;BME280_humidity;BME280_pressure;Samples;Min_cycle;Max_cycle;Signal;HPM_P1;HPM_P2
2022/03/01 00:02:06;;;;;;;4.45;1.80;;;9.00;99.90;;;;;;5037150;28;20018;-73
2022/03/01 00:04:32;;;;;;;0.40;0.40;;;9.10;99.90;;;;;;5036326;28;20029;-73
2022/03/01 00:06:58;;;;;;;0.55;0.55;;;9.20;99.90;;;;;;5034895;28;20037;-71
2022/03/01 00:09:24;;;;;;;0.30;0.30;;;9.20;99.90;;;;;;5036247;28;20445;-70
2022/03/01 00:11:49;;;;;;;0.52;0.52;;;9.20;99.90;;;;;;5036061;28;20038;-70
2022/03/01 00:14:15;;;;;;;0.40;0.40;;;9.20;99.90;;;;;;5036234;28;20028;-71
2022/03/01 00:16:41;;;;;;;6.28;2.95;;;9.30;99.90;;;;;;5036003;28;20542;-71
2022/03/01 00:19:06;;;;;;;0.60;0.60;;;9.30;99.90;;;;;;5036258;28;20030;-71
2022/03/01 00:21:33;;;;;;;2.72;1.60;;;9.30;99.90;;;;;;5036238;28;20101;-73
2022/03/01 00:23:59;;;;;;;1.35;1.25;;;9.20;99.90;;;;;;5035906;28;20021;-73
2022/03/01 00:26:24;;;;;;;0.63;0.63;;;9.20;99.90;;;;;;5036289;28;20560;-74
2022/03/01 00:28:50;;;;;;;0.20;0.20;;;9.20;99.90;;;;;;5035955;28;20488;-73
2022/03/01 00:31:16;;;;;;;0.45;0.45;;;9.10;99.90;;;;;;5036006;28;20086;-73
2022/03/01 00:33:42;;;;;;;0.60;0.60;;;9.10;99.90;;;;;;5036022;28;20049;-73
2022/03/01 00:36:08;;;;;;;1.00;1.00;;;9.00;99.90;;;;;;5022568;28;20030;-73
2022/03/01 00:38:33;;;;;;;1.10;1.10;;;9.00;99.90;;;;;;5035168;28;20064;-71
2022/03/01 00:40:59;;;;;;;0.10;0.10;;;9.00;99.90;;;;;;5033958;28;20040;-70
2022/03/01 00:43:25;;;;;;;0.40;0.40;;;9.10;99.90;;;;;;5035471;28;20022;-73
2022/03/01 00:45:52;;;;;;;1.10;0.70;;;9.10;99.90;;;;;;5035587;28;20061;-73
2022/03/01 00:48:18;;;;;;;0.00;0.00;;;9.20;99.90;;;;;;5035777;28;20058;-73
2022/03/01 00:50:44;;;;;;;0.40;0.40;;;9.20;99.90;;;;;;5034927;28;20055;-73
2022/03/01 00:53:10;;;;;;;1.27;1.17;;;9.20;99.90;;;;;;5035039;28;20037;-73
2022/03/01 00:55:36;;;;;;;0.40;0.40;;;9.20;99.90;;;;;;5036730;28;20033;-71
2022/03/01 00:58:02;;;;;;;0.20;0.20;;;9.20;99.90;;;;;;5035408;28;20029;-73
2022/03/01 01:00:30;;;;;;;1.90;1.08;;;9.20;99.90;;;;;;5035381;28;20029;-73
2022/03/01 01:02:56;;;;;;;2.17;1.55;;;9.20;99.90;;;;;;5036155;28;20025;-74
2022/03/01 01:05:22;;;;;;;1.00;1.00;;;9.20;99.90;;;;;;5033871;28;20036;-73
2022/03/01 01:07:49;;;;;;;0.45;0.32;;;9.20;99.90;;;;;;5035257;28;20539;-72
2022/03/01 01:10:15;;;;;;;1.60;1.13;;;9.10;99.90;;;;;;5035762;28;20032;-74
2022/03/01 01:12:41;;;;;;;0.20;0.13;;;9.10;99.90;;;;;;5034246;28;20060;-73
2022/03/01 01:15:08;;;;;;;0.22;0.22;;;9.10;99.90;;;;;;5034923;28;20026;-73
2022/03/01 01:17:34;;;;;;;1.85;0.40;;;9.10;99.90;;;;;;5033317;28;20100;-71
2022/03/01 01:20:01;;;;;;;1.55;0.52;;;9.10;99.90;;;;;;5034764;28;20076;-73
2022/03/01 01:22:41;;;;;;;17.75;2.83;;;9.10;99.90;;;;;;5035032;28;20033;-73
2022/03/01 01:25:19;;;;;;;0.20;0.20;;;9.10;99.90;;;;;;5034574;28;20030;-73
2022/03/01 01:27:48;;;;;;;2.38;1.65;;;9.10;99.90;;;;;;5034198;28;20156;-73
2022/03/01 01:30:16;;;;;;;0.75;0.75;;;9.10;99.90;;;;;;5034874;28;20025;-73
2022/03/01 01:32:43;;;;;;;3.08;1.55;;;9.10;99.90;;;;;;5034319;28;20026;-73
2022/03/01 01:35:10;;;;;;;0.55;0.55;;;9.00;99.90;;;;;;5028561;28;20028;-73
2022/03/01 01:37:36;;;;;;;2.08;1.75;;;9.00;99.90;;;;;;5026480;28;20033;-71
2022/03/01 01:40:03;;;;;;;11.75;0.90;;;9.00;99.90;;;;;;5034409;28;20018;-73
2022/03/01 01:42:29;;;;;;;0.28;0.28;;;9.10;99.90;;;;;;5033730;28;20018;-73
2022/03/01 01:44:55;;;;;;;3.95;1.00;;;9.20;99.90;;;;;;5034413;28;20038;-73
2022/03/01 01:47:20;;;;;;;0.10;0.10;;;9.20;99.90;;;;;;5034627;28;20060;-73
2022/03/01 01:49:46;;;;;;;1.23;1.23;;;9.30;99.90;;;;;;5034144;28;20140;-71
2022/03/01 01:52:12;;;;;;;0.80;0.77;;;9.30;99.90;;;;;;5033606;28;20021;-74
2022/03/01 01:54:38;;;;;;;3.42;1.60;;;9.30;99.90;;;;;;5036463;28;20029;-71
2022/03/01 01:57:24;;;;;;;0.05;0.05;;;9.40;99.90;;;;;;5034346;28;20029;-73
2022/03/01 01:59:52;;;;;;;1.05;1.05;;;9.40;99.90;;;;;;5035495;28;20118;-74
2022/03/01 02:02:19;;;;;;;1.85;1.38;;;9.30;99.90;;;;;;5034105;28;20030;-71
2022/03/01 02:04:45;;;;;;;0.38;0.38;;;9.30;99.90;;;;;;5034161;28;20071;-73
2022/03/01 02:07:12;;;;;;;1.65;1.25;;;9.30;99.90;;;;;;5035766;28;20033;-73
2022/03/01 02:09:38;;;;;;;1.75;1.33;;;9.30;99.90;;;;;;5033503;28;20049;-71
2022/03/01 02:12:05;;;;;;;0.70;0.47;;;9.30;99.90;;;;;;5033610;28;20496;-73
2022/03/01 02:14:35;;;;;;;0.77;0.77;;;9.30;99.90;;;;;;5033246;28;20396;-74
2022/03/01 02:17:04;;;;;;;0.10;0.10;;;9.20;99.90;;;;;;5033614;28;20021;-73
2022/03/01 02:19:30;;;;;;;3.10;2.38;;;9.20;99.90;;;;;;5033456;28;20037;-74
2022/03/01 02:21:57;;;;;;;1.83;1.73;;;9.20;99.90;;;;;;5035045;28;20026;-73
2022/03/01 02:24:25;;;;;;;0.57;0.57;;;9.20;99.90;;;;;;5033299;28;20032;-73
2022/03/01 02:26:59;;;;;;;1.90;1.77;;;9.20;99.90;;;;;;5033476;28;20037;-70
2022/03/01 02:29:25;;;;;;;0.88;0.63;;;9.20;99.90;;;;;;5033278;28;20500;-73
2022/03/01 02:31:52;;;;;;;5.15;0.75;;;9.20;99.90;;;;;;5033696;28;20029;-73
2022/03/01 02:34:18;;;;;;;0.22;0.22;;;9.10;99.90;;;;;;5033681;28;20052;-73
2022/03/01 02:36:45;;;;;;;0.88;0.68;;;9.10;99.90;;;;;;5018680;28;20017;-73
2022/03/01 02:39:13;;;;;;;4.22;1.30;;;9.10;99.90;;;;;;5033353;28;20064;-71
2022/03/01 02:41:40;;;;;;;2.55;1.67;;;9.10;99.90;;;;;;5033250;28;20017;-73
2022/03/01 02:44:07;;;;;;;0.50;0.50;;;9.10;99.90;;;;;;5033440;28;20041;-73
2022/03/01 02:46:33;;;;;;;0.13;0.13;;;9.00;99.90;;;;;;5033661;28;20496;-74
2022/03/01 02:48:59;;;;;;;0.10;0.10;;;9.00;99.90;;;;;;5034263;28;20111;-73
2022/03/01 02:51:25;;;;;;;0.70;0.70;;;9.00;99.90;;;;;;5033211;28;20216;-73
2022/03/01 02:53:51;;;;;;;0.60;0.60;;;9.00;99.90;;;;;;5033031;28;20129;-73
2022/03/01 02:56:16;;;;;;;1.40;1.30;;;8.90;99.90;;;;;;5034333;28;20199;-73
2022/03/01 02:58:42;;;;;;;0.95;0.95;;;8.90;99.90;;;;;;5033151;28;20492;-73
2022/03/01 03:01:11;;;;;;;0.45;0.45;;;8.90;99.90;;;;;;5032745;28;20056;-73
2022/03/01 03:03:36;;;;;;;0.20;0.20;;;8.80;99.90;;;;;;5034226;28;20029;-73
2022/03/01 03:06:02;;;;;;;0.28;0.28;;;8.80;99.90;;;;;;5040287;28;20106;-73
2022/03/01 03:08:28;;;;;;;1.33;0.63;;;8.70;99.90;;;;;;5039543;28;20025;-73
2022/03/01 03:10:54;;;;;;;2.17;1.42;;;8.60;99.90;;;;;;5041866;28;20030;-71
2022/03/01 03:13:20;;;;;;;0.15;0.15;;;8.60;99.90;;;;;;5039503;28;20032;-73
2022/03/01 03:15:47;;;;;;;1.15;0.63;;;8.60;99.90;;;;;;5039433;28;20032;-73
2022/03/01 03:18:13;;;;;;;0.10;0.10;;;8.60;99.90;;;;;;5040745;28;20072;-74
2022/03/01 03:20:39;;;;;;;2.00;1.55;;;8.60;99.90;;;;;;5039776;28;20018;-73
2022/03/01 03:23:05;;;;;;;0.10;0.10;;;8.60;99.90;;;;;;5040187;28;20032;-71
2022/03/01 03:25:32;;;;;;;0.20;0.20;;;8.60;99.90;;;;;;5038730;28;20079;-72
2022/03/01 03:27:57;;;;;;;0.00;0.00;;;8.50;99.90;;;;;;5039636;28;20075;-73
2022/03/01 03:30:23;;;;;;;0.25;0.25;;;8.50;99.90;;;;;;5039691;28;20026;-73
2022/03/01 03:32:49;;;;;;;0.20;0.20;;;8.50;99.90;;;;;;5038909;28;20030;-73
2022/03/01 03:35:14;;;;;;;3.30;1.55;;;8.40;99.90;;;;;;5032315;28;20192;-71
2022/03/01 03:37:40;;;;;;;4.90;1.98;;;8.40;99.90;;;;;;5031568;28;20064;-71
2022/03/01 03:40:06;;;;;;;1.30;0.90;;;8.40;99.90;;;;;;5039391;28;20076;-73
2022/03/01 03:42:32;;;;;;;0.00;0.00;;;8.40;99.90;;;;;;5039000;28;20057;-71
2022/03/01 03:44:58;;;;;;;0.30;0.30;;;8.40;99.90;;;;;;5039365;28;20150;-73
2022/03/01 03:47:23;;;;;;;0.10;0.10;;;8.50;99.90;;;;;;5039353;28;20420;-73
2022/03/01 03:49:49;;;;;;;0.22;0.22;;;8.40;99.90;;;;;;5038636;28;20021;-71
2022/03/01 03:52:15;;;;;;;2.35;0.52;;;8.50;99.90;;;;;;5040708;28;20396;-73
2022/03/01 03:54:41;;;;;;;4.57;2.20;;;8.50;99.90;;;;;;5040822;28;20030;-73
2022/03/01 03:57:08;;;;;;;0.68;0.63;;;8.50;99.90;;;;;;5039322;28;20099;-73
2022/03/01 03:59:38;;;;;;;0.20;0.20;;;8.50;99.90;;;;;;5039285;28;20026;-73
2022/03/01 04:02:06;;;;;;;0.52;0.52;;;8.50;99.90;;;;;;5039286;28;20029;-71
2022/03/01 04:04:32;;;;;;;1.05;0.30;;;8.50;99.90;;;;;;5038562;28;20087;-70
2022/03/01 04:06:58;;;;;;;0.22;0.22;;;8.50;99.90;;;;;;5039374;28;20025;-71
2022/03/01 04:09:24;;;;;;;0.57;0.47;;;8.50;99.90;;;;;;5038814;28;20451;-73
2022/03/01 04:11:49;;;;;;;0.75;0.75;;;8.50;99.90;;;;;;5037665;28;20040;-71
2022/03/01 04:14:17;;;;;;;0.80;0.80;;;8.50;99.90;;;;;;5039347;28;20022;-75
2022/03/01 04:16:44;;;;;;;2.30;0.65;;;8.50;99.90;;;;;;5034922;28;20399;-71
2022/03/01 04:19:10;;;;;;;0.47;0.47;;;8.60;99.90;;;;;;5035713;28;20033;-73
2022/03/01 04:21:36;;;;;;;0.60;0.60;;;8.60;99.90;;;;;;5036608;28;20075;-73
2022/03/01 04:24:03;;;;;;;0.35;0.35;;;8.60;99.90;;;;;;5036084;28;20101;-71
2022/03/01 04:26:29;;;;;;;0.30;0.30;;;8.60;99.90;;;;;;5034882;28;20040;-71
2022/03/01 04:28:55;;;;;;;0.25;0.25;;;8.60;99.90;;;;;;5037093;28;20026;-71
2022/03/01 04:31:21;;;;;;;0.45;0.45;;;8.60;99.90;;;;;;5035928;28;20079;-71
2022/03/01 04:33:47;;;;;;;1.70;0.30;;;8.60;99.90;;;;;;5036105;28;20021;-71
2022/03/01 04:36:13;;;;;;;1.02;0.20;;;8.60;99.90;;;;;;5037411;28;20030;-71
2022/03/01 04:38:39;;;;;;;0.35;0.35;;;8.60;99.90;;;;;;5035502;28;20028;-73
2022/03/01 04:41:05;;;;;;;0.40;0.40;;;8.60;99.90;;;;;;5035559;28;20546;-71
2022/03/01 04:43:31;;;;;;;3.30;2.15;;;8.60;99.90;;;;;;5035607;28;20049;-71
2022/03/01 04:45:57;;;;;;;0.28;0.28;;;8.60;99.90;;;;;;5035018;28;20117;-74
2022/03/01 04:48:23;;;;;;;1.85;1.30;;;8.60;99.90;;;;;;5035781;28;20511;-73
2022/03/01 04:50:50;;;;;;;0.90;0.90;;;8.60;99.90;;;;;;5036129;28;20025;-73
2022/03/01 04:53:16;;;;;;;0.38;0.38;;;8.60;99.90;;;;;;5035140;28;20032;-71
2022/03/01 04:55:42;;;;;;;0.22;0.15;;;8.60;99.90;;;;;;5035489;28;20029;-73
2022/03/01 04:58:08;;;;;;;0.70;0.70;;;8.70;99.90;;;;;;5035685;28;20459;-71
2022/03/01 05:00:34;;;;;;;0.30;0.30;;;8.70;99.90;;;;;;5035292;28;20116;-73
2022/03/01 05:03:00;;;;;;;0.50;0.50;;;8.80;99.90;;;;;;5035430;28;20079;-73
2022/03/01 05:05:26;;;;;;;0.28;0.28;;;8.80;99.90;;;;;;5035526;28;20489;-74
2022/03/01 05:07:51;;;;;;;5.72;1.30;;;8.80;99.90;;;;;;5034966;28;20553;-74
2022/03/01 05:10:18;;;;;;;0.47;0.47;;;8.70;99.90;;;;;;5034740;28;20025;-73
2022/03/01 05:12:52;;;;;;;0.35;0.35;;;8.70;99.90;;;;;;5034893;28;20392;-71
2022/03/01 05:15:18;;;;;;;0.00;0.00;;;8.70;99.90;;;;;;5034754;28;20396;-73
2022/03/01 05:17:45;;;;;;;6.43;2.50;;;8.60;99.90;;;;;;5039107;28;20044;-73
2022/03/01 05:20:13;;;;;;;0.10;0.10;;;8.60;99.90;;;;;;5034273;28;20065;-71
2022/03/01 05:22:39;;;;;;;0.00;0.00;;;8.60;99.90;;;;;;5034630;28;20104;-71
2022/03/01 05:25:09;;;;;;;0.30;0.30;;;8.60;99.90;;;;;;5033040;28;20107;-73
2022/03/01 05:27:38;;;;;;;0.35;0.35;;;8.60;99.90;;;;;;5035163;28;20061;-71
2022/03/01 05:30:06;;;;;;;0.20;0.20;;;8.60;99.90;;;;;;5034806;28;20014;-71
2022/03/01 05:32:36;;;;;;;0.00;0.00;;;8.60;99.90;;;;;;5034639;28;20453;-74
2022/03/01 05:35:02;;;;;;;1.27;1.00;;;8.60;99.90;;;;;;5035686;28;20022;-74
2022/03/01 05:37:28;;;;;;;2.10;1.45;;;8.60;99.90;;;;;;5034544;28;20120;-73
2022/03/01 05:39:54;;;;;;;0.52;0.50;;;8.60;99.90;;;;;;5033612;28;20060;-73
2022/03/01 05:42:20;;;;;;;0.03;0.03;;;8.60;99.90;;;;;;5034823;28;20030;-71
2022/03/01 05:44:45;;;;;;;3.00;1.85;;;8.60;99.90;;;;;;5036108;28;20512;-73
2022/03/01 05:47:11;;;;;;;0.75;0.75;;;8.60;99.90;;;;;;5034392;28;20036;-74
2022/03/01 05:49:37;;;;;;;0.90;0.88;;;8.70;99.90;;;;;;5034160;28;20032;-71
2022/03/01 05:52:04;;;;;;;0.85;0.85;;;8.70;99.90;;;;;;5035864;28;20488;-74
2022/03/01 05:54:30;;;;;;;0.80;0.77;;;8.70;99.90;;;;;;5030035;28;20029;-72
2022/03/01 05:56:55;;;;;;;0.45;0.40;;;8.70;99.90;;;;;;5030823;28;20033;-74
2022/03/01 05:59:21;;;;;;;1.33;0.43;;;8.70;99.90;;;;;;5033919;28;20109;-74
2022/03/01 06:01:46;;;;;;;1.13;1.10;;;8.70;99.90;;;;;;5033793;28;20073;-71
2022/03/01 06:04:12;;;;;;;0.52;0.52;;;8.70;99.90;;;;;;5033571;28;20028;-73
2022/03/01 06:06:38;;;;;;;1.10;1.02;;;8.70;99.90;;;;;;5033818;28;20028;-71
2022/03/01 06:09:04;;;;;;;7.53;1.13;;;8.70;99.90;;;;;;5034491;28;20108;-74
2022/03/01 06:11:30;;;;;;;0.13;0.13;;;8.70;99.90;;;;;;5033437;28;20036;-73
2022/03/01 06:13:56;;;;;;;0.30;0.30;;;8.60;99.90;;;;;;5033946;28;20436;-71
2022/03/01 06:16:21;;;;;;;0.40;0.40;;;8.60;99.90;;;;;;5032376;28;20055;-73
2022/03/01 06:18:47;;;;;;;1.15;1.10;;;8.60;99.90;;;;;;5034590;28;20116;-73
2022/03/01 06:21:13;;;;;;;0.40;0.38;;;8.60;99.90;;;;;;5032388;28;20022;-74
2022/03/01 06:23:39;;;;;;;0.47;0.47;;;8.50;99.90;;;;;;5033428;28;20081;-71
2022/03/01 06:26:04;;;;;;;1.13;1.02;;;8.50;99.90;;;;;;5033398;28;20021;-73
2022/03/01 06:28:30;;;;;;;0.57;0.57;;;8.50;99.90;;;;;;5035157;28;20390;-74
2022/03/01 06:30:56;;;;;;;2.05;1.50;;;8.50;99.90;;;;;;5032590;28;20029;-73
2022/03/01 06:33:21;;;;;;;4.47;0.68;;;8.40;99.90;;;;;;5033279;28;20480;-74
2022/03/01 06:35:47;;;;;;;10.73;1.20;;;8.40;99.90;;;;;;5031734;28;20026;-73
2022/03/01 06:38:13;;;;;;;0.35;0.35;;;8.40;99.90;;;;;;5030896;28;20095;-76
2022/03/01 06:40:39;;;;;;;0.60;0.15;;;8.30;99.90;;;;;;5031313;28;20029;-74
2022/03/01 06:43:04;;;;;;;0.47;0.47;;;8.30;99.90;;;;;;5032773;28;20025;-73
2022/03/01 06:45:32;;;;;;;0.20;0.20;;;8.30;99.90;;;;;;5029058;28;20049;-77
2022/03/01 06:47:58;;;;;;;1.45;0.52;;;8.20;99.90;;;;;;5031934;28;20562;-74
2022/03/01 06:50:25;;;;;;;0.20;0.20;;;8.20;99.90;;;;;;5033464;28;20026;-74
2022/03/01 06:52:51;;;;;;;0.73;0.73;;;8.20;99.90;;;;;;5031559;28;20029;-76
2022/03/01 06:55:17;;;;;;;0.32;0.32;;;8.20;99.90;;;;;;5032216;28;20028;-74
2022/03/01 06:57:43;;;;;;;3.42;1.40;;;8.30;99.90;;;;;;5032903;28;20025;-74
2022/03/01 07:00:10;;;;;;;0.30;0.30;;;8.30;99.90;;;;;;5032122;28;20017;-76
2022/03/01 07:02:38;;;;;;;1.27;1.02;;;8.40;99.90;;;;;;5022657;28;20067;-76
2022/03/01 07:05:09;;;;;;;0.00;0.00;;;8.40;99.90;;;;;;5031520;28;20021;-74
2022/03/01 07:07:36;;;;;;;0.52;0.52;;;8.50;99.90;;;;;;5031320;28;20026;-74
2022/03/01 07:10:03;;;;;;;1.23;0.65;;;8.50;99.90;;;;;;5026940;28;20040;-72
2022/03/01 07:12:28;;;;;;;0.10;0.10;;;8.50;99.90;;;;;;5026663;28;20029;-76
2022/03/01 07:14:54;;;;;;;1.25;0.90;;;8.60;99.90;;;;;;5030818;28;20025;-73
2022/03/01 07:17:21;;;;;;;0.73;0.73;;;8.60;99.90;;;;;;5030765;28;20090;-74
2022/03/01 07:19:47;;;;;;;1.40;0.60;;;8.70;99.90;;;;;;5030807;28;20077;-76
2022/03/01 07:22:12;;;;;;;0.25;0.25;;;8.70;99.90;;;;;;5031025;28;20021;-73
2022/03/01 07:24:38;;;;;;;0.70;0.70;;;8.70;99.90;;;;;;5030478;28;20509;-73
2022/03/01 07:27:04;;;;;;;0.20;0.20;;;8.80;99.90;;;;;;5028890;28;20443;-73
2022/03/01 07:29:30;;;;;;;0.20;0.20;;;8.80;99.90;;;;;;5029185;28;20033;-73
2022/03/01 07:31:57;;;;;;;2.25;0.82;;;8.90;99.90;;;;;;5029821;28;20126;-73
2022/03/01 07:34:23;;;;;;;0.65;0.65;;;8.90;99.90;;;;;;5030035;28;20159;-73
2022/03/01 07:36:49;;;;;;;0.20;0.20;;;9.00;99.90;;;;;;5024585;28;20543;-75
2022/03/01 07:39:15;;;;;;;1.48;1.15;;;9.00;99.90;;;;;;5043373;28;20048;-72
2022/03/01 07:41:40;;;;;;;1.15;1.05;;;9.00;99.90;;;;;;5061317;28;20029;-76
2022/03/01 07:44:06;;;;;;;0.47;0.47;;;9.00;99.90;;;;;;5011961;28;20037;-74
2022/03/01 07:46:31;;;;;;;0.43;0.43;;;9.10;99.90;;;;;;5022550;28;20492;-74
2022/03/01 07:48:57;;;;;;;3.10;0.30;;;9.10;99.90;;;;;;5030159;28;20500;-73
2022/03/01 07:51:23;;;;;;;0.22;0.22;;;9.10;99.90;;;;;;5033513;28;20091;-76
2022/03/01 07:53:50;;;;;;;0.32;0.32;;;9.20;99.90;;;;;;5032041;28;20036;-76
2022/03/01 07:56:16;;;;;;;0.65;0.45;;;9.20;99.90;;;;;;5031517;28;20060;-74
2022/03/01 07:58:42;;;;;;;1.52;0.65;;;9.30;99.90;;;;;;5033354;28;20061;-74
2022/03/01 08:01:08;;;;;;;0.65;0.65;;;9.30;99.90;;;;;;5025921;28;20026;-75
2022/03/01 08:03:34;;;;;;;2.95;1.08;;;9.40;99.90;;;;;;5031751;28;20026;-74
2022/03/01 08:05:59;;;;;;;0.20;0.20;;;9.50;99.90;;;;;;5036582;28;20037;-73
2022/03/01 08:08:26;;;;;;;0.38;0.35;;;9.50;99.90;;;;;;5037162;28;20118;-73
2022/03/01 08:10:52;;;;;;;0.22;0.22;;;9.60;99.90;;;;;;5032706;28;20029;-73
2022/03/01 08:13:17;;;;;;;0.43;0.22;;;9.60;99.90;;;;;;5033531;28;20032;-73
2022/03/01 08:15:43;;;;;;;0.10;0.10;;;9.70;99.90;;;;;;5031995;28;20515;-75
2022/03/01 08:18:09;;;;;;;0.57;0.57;;;9.80;99.90;;;;;;5024627;28;20041;-76
2022/03/01 08:20:35;;;;;;;0.55;0.55;;;9.80;99.90;;;;;;5013324;28;20021;-75
2022/03/01 08:23:02;;;;;;;0.00;0.00;;;10.00;99.90;;;;;;5019264;28;20033;-76
2022/03/01 08:25:28;;;;;;;0.73;0.73;;;10.10;99.90;;;;;;5024234;28;20499;-73
2022/03/01 08:27:54;;;;;;;1.40;0.88;;;10.20;99.90;;;;;;5017648;28;20026;-73
2022/03/01 08:30:20;;;;;;;0.45;0.30;;;10.20;99.90;;;;;;5023676;28;20038;-73
2022/03/01 08:32:46;;;;;;;0.57;0.55;;;10.40;99.90;;;;;;5029335;28;20025;-73
2022/03/01 08:35:12;;;;;;;0.60;0.60;;;10.50;99.90;;;;;;4135167;28;10000927;-75
2022/03/01 08:37:38;;;;;;;0.10;0.10;;;10.50;99.90;;;;;;4986058;28;20101;-73
2022/03/01 08:40:05;;;;;;;0.32;0.32;;;10.60;99.90;;;;;;4990671;28;20035;-73
2022/03/01 08:42:30;;;;;;;0.20;0.20;;;10.70;99.90;;;;;;4986031;28;20043;-76
2022/03/01 08:44:56;;;;;;;0.25;0.25;;;10.70;99.90;;;;;;4984066;28;20074;-73
2022/03/01 08:47:23;;;;;;;0.10;0.10;;;10.80;99.90;;;;;;4983279;28;20037;-75
2022/03/01 08:49:49;;;;;;;2.58;0.35;;;10.90;99.90;;;;;;4985243;28;20027;-75
2022/03/01 08:52:17;;;;;;;0.20;0.20;;;10.90;99.90;;;;;;4992135;28;20494;-73
2022/03/01 08:54:42;;;;;;;0.45;0.45;;;11.00;99.90;;;;;;4978769;28;20124;-75
2022/03/01 08:57:09;;;;;;;1.45;0.98;;;11.10;99.90;;;;;;4974737;28;20490;-73
2022/03/01 08:59:34;;;;;;;0.20;0.20;;;11.10;99.90;;;;;;4983594;28;20037;-75
2022/03/01 09:02:00;;;;;;;0.45;0.45;;;11.20;99.90;;;;;;4981745;28;20030;-73
2022/03/01 09:04:25;;;;;;;0.45;0.45;;;11.30;99.90;;;;;;4991148;28;20049;-74
2022/03/01 09:06:51;;;;;;;3.72;0.57;;;11.30;99.90;;;;;;4991406;28;20050;-74
2022/03/01 09:09:17;;;;;;;0.43;0.30;;;11.40;99.90;;;;;;4985873;28;20114;-76
2022/03/01 09:11:42;;;;;;;1.35;0.38;;;11.40;99.90;;;;;;4983108;28;20042;-76
2022/03/01 09:14:08;;;;;;;3.00;1.30;;;11.50;99.90;;;;;;4985149;28;20049;-76
2022/03/01 09:16:34;;;;;;;0.95;0.88;;;11.60;99.90;;;;;;4986507;28;20031;-76
2022/03/01 09:18:59;;;;;;;0.17;0.10;;;11.80;99.90;;;;;;4986500;28;20117;-75
2022/03/01 09:21:25;;;;;;;0.22;0.22;;;11.80;99.90;;;;;;4981676;28;20490;-75
2022/03/01 09:23:50;;;;;;;14.00;0.47;;;11.90;99.90;;;;;;4987351;28;20045;-76
2022/03/01 09:26:16;;;;;;;5.45;1.15;;;11.90;99.90;;;;;;4979365;28;20078;-76
2022/03/01 09:28:42;;;;;;;0.28;0.28;;;12.00;99.90;;;;;;4980292;28;20042;-75
2022/03/01 09:31:10;;;;;;;0.13;0.13;;;12.20;99.90;;;;;;4983573;28;20034;-74
2022/03/01 09:33:42;;;;;;;0.40;0.40;;;12.40;99.90;;;;;;5013191;28;20449;-74
2022/03/01 09:36:14;;;;;;;0.17;0.13;;;12.50;99.90;;;;;;4982957;28;20046;-75
2022/03/01 09:38:41;;;;;;;1.55;0.85;;;12.60;99.90;;;;;;4985983;28;20038;-76
2022/03/01 09:41:08;;;;;;;0.50;0.50;;;12.80;99.90;;;;;;4975064;28;20034;-74
2022/03/01 09:43:37;;;;;;;0.15;0.15;;;12.90;99.90;;;;;;4978263;28;20030;-74
2022/03/01 09:46:04;;;;;;;0.20;0.20;;;13.00;99.90;;;;;;4974614;28;20027;-74
2022/03/01 09:48:30;;;;;;;0.65;0.32;;;13.00;99.90;;;;;;4974411;28;20062;-74
2022/03/01 09:51:01;;;;;;;0.30;0.30;;;12.90;99.90;;;;;;4980665;28;20073;-76
2022/03/01 09:53:27;;;;;;;0.70;0.40;;;12.90;99.90;;;;;;4987431;28;20035;-76
2022/03/01 09:55:54;;;;;;;1.02;0.35;;;12.80;99.90;;;;;;4990254;28;20417;-74
2022/03/01 09:58:20;;;;;;;3.58;0.50;;;12.70;99.90;;;;;;4985134;28;20045;-74
2022/03/01 10:00:47;;;;;;;1.50;0.77;;;12.80;99.90;;;;;;4977088;28;20035;-74
2022/03/01 10:03:17;;;;;;;0.55;0.17;;;12.90;99.90;;;;;;4977672;28;20027;-76
2022/03/01 10:05:43;;;;;;;0.20;0.17;;;13.00;99.90;;;;;;4983588;28;20361;-76
2022/03/01 10:08:17;;;;;;;0.30;0.20;;;13.10;99.90;;;;;;4976997;28;20035;-76
2022/03/01 10:10:47;;;;;;;0.25;0.15;;;13.10;99.90;;;;;;4989308;28;20404;-75
2022/03/01 10:13:25;;;;;;;0.13;0.13;;;13.30;99.90;;;;;;5007630;28;20037;-74
2022/03/01 10:16:01;;;;;;;0.73;0.38;;;13.40;99.90;;;;;;4993968;28;20544;-76
2022/03/01 10:18:34;;;;;;;0.20;0.20;;;13.40;99.90;;;;;;4990534;28;20065;-76
2022/03/01 10:21:07;;;;;;;0.30;0.30;;;13.50;99.90;;;;;;4989335;28;20452;-76
2022/03/01 10:23:33;;;;;;;0.30;0.30;;;13.50;99.90;;;;;;4998926;28;20026;-74
2022/03/01 10:26:15;;;;;;;1.13;0.85;;;13.60;99.90;;;;;;4989455;28;20034;-76
2022/03/01 10:28:42;;;;;;;0.17;0.17;;;13.70;99.90;;;;;;4988162;28;20030;-76
2022/03/01 10:31:15;;;;;;;0.60;0.60;;;13.80;99.90;;;;;;4989596;28;20030;-76
2022/03/01 10:33:56;;;;;;;0.63;0.63;;;13.80;99.90;;;;;;4987754;28;20092;-76
2022/03/01 10:36:29;;;;;;;0.35;0.30;;;14.00;99.90;;;;;;4993708;28;20021;-74
2022/03/01 10:39:05;;;;;;;3.00;0.40;;;14.20;99.90;;;;;;4992026;28;20034;-76
2022/03/01 10:41:33;;;;;;;6.55;2.72;;;14.40;99.90;;;;;;4983246;28;20045;-76
2022/03/01 10:44:00;;;;;;;0.28;0.28;;;14.60;99.90;;;;;;4990831;28;20045;-74
2022/03/01 10:46:27;;;;;;;0.70;0.70;;;14.90;99.90;;;;;;4989550;28;20025;-76
2022/03/01 10:49:25;;;;;;;3.40;0.50;;;15.10;99.90;;;;;;4991595;28;20042;-76
2022/03/01 10:51:54;;;;;;;0.38;0.28;;;15.20;99.90;;;;;;4989563;28;20417;-74
2022/03/01 10:54:30;;;;;;;1.27;1.17;;;15.40;99.90;;;;;;4991189;28;20048;-76
2022/03/01 10:56:57;;;;;;;0.70;0.20;;;15.50;99.90;;;;;;4990319;28;20026;-75
2022/03/01 10:59:25;;;;;;;0.32;0.32;;;15.70;99.90;;;;;;4990184;28;20045;-76
2022/03/01 11:01:52;;;;;;;1.40;0.75;;;15.80;99.90;;;;;;4988351;28;20030;-75
2022/03/01 11:04:18;;;;;;;0.20;0.20;;;16.20;99.90;;;;;;4976702;28;20018;-75
2022/03/01 11:06:47;;;;;;;1.00;0.77;;;16.10;99.90;;;;;;4996241;28;20092;-76
2022/03/01 11:09:14;;;;;;;0.28;0.22;;;16.20;99.90;;;;;;4988256;28;20068;-75
2022/03/01 11:11:41;;;;;;;3.60;1.95;;;16.00;99.90;;;;;;4989121;28;20608;-76
2022/03/01 11:14:08;;;;;;;3.88;0.32;;;15.80;99.90;;;;;;4992886;28;20423;-74
2022/03/01 11:16:45;;;;;;;0.68;0.40;;;15.60;99.90;;;;;;4988517;28;20045;-74
2022/03/01 11:19:38;;;;;;;0.20;0.20;;;15.50;99.90;;;;;;4961109;28;20579;-76
2022/03/01 11:22:05;;;;;;;1.13;0.55;;;15.80;99.90;;;;;;4961354;28;20031;-76
2022/03/01 11:24:31;;;;;;;0.08;0.08;;;16.20;99.90;;;;;;4969507;28;20038;-75
2022/03/01 11:27:08;;;;;;;0.50;0.30;;;16.70;99.90;;;;;;4968943;28;20045;-76
2022/03/01 11:29:41;;;;;;;0.80;0.43;;;17.40;99.90;;;;;;4973923;28;20381;-76
2022/03/01 11:32:16;;;;;;;9.48;0.50;;;17.50;99.90;;;;;;4974566;28;20162;-76
2022/03/01 11:34:43;;;;;;;0.30;0.30;;;17.60;99.90;;;;;;4989614;28;20112;-75
2022/03/01 11:37:18;;;;;;;0.22;0.22;;;17.60;99.90;;;;;;4992255;28;20054;-76
2022/03/01 11:39:54;;;;;;;1.10;0.55;;;17.80;99.90;;;;;;4971673;28;20065;-76
2022/03/01 11:42:21;;;;;;;2.20;0.85;;;17.80;99.90;;;;;;4972187;28;20053;-75
2022/03/01 11:44:52;;;;;;;3.80;0.50;;;17.80;99.90;;;;;;4989136;28;20185;-75
2022/03/01 11:47:30;;;;;;;0.47;0.13;;;17.80;99.90;;;;;;4983591;28;20029;-77
2022/03/01 11:49:56;;;;;;;1.55;0.70;;;18.10;99.90;;;;;;4980793;28;20026;-76
2022/03/01 11:52:26;;;;;;;0.35;0.35;;;18.10;99.90;;;;;;4967836;28;20034;-75
2022/03/01 11:54:55;;;;;;;1.23;0.35;;;18.40;99.90;;;;;;4971049;28;20042;-76
2022/03/01 11:57:29;;;;;;;0.98;0.80;;;18.30;99.90;;;;;;4967581;28;20038;-77
2022/03/01 11:59:58;;;;;;;1.48;0.50;;;18.00;99.90;;;;;;4987916;28;20502;-77
2022/03/01 12:02:26;;;;;;;0.43;0.43;;;18.00;99.90;;;;;;4975353;28;20042;-77
2022/03/01 12:04:55;;;;;;;0.25;0.25;;;18.20;99.90;;;;;;5000867;28;20041;-76
2022/03/01 12:07:23;;;;;;;2.22;1.23;;;18.20;99.90;;;;;;4973031;28;20030;-77
2022/03/01 12:09:59;;;;;;;0.98;0.63;;;18.10;99.90;;;;;;4978240;28;20045;-76
2022/03/01 12:12:32;;;;;;;2.58;0.70;;;18.10;99.90;;;;;;4972558;28;20453;-76
2022/03/01 12:14:58;;;;;;;3.45;0.57;;;17.90;99.90;;;;;;4971752;28;20497;-75
2022/03/01 12:17:24;;;;;;;0.10;0.10;;;17.90;99.90;;;;;;4975740;28;20038;-76
2022/03/01 12:20:00;;;;;;;0.25;0.22;;;17.80;99.90;;;;;;4989446;28;20046;-76
2022/03/01 12:22:26;;;;;;;0.43;0.43;;;17.60;99.90;;;;;;4984454;28;20035;-76
2022/03/01 12:24:52;;;;;;;0.28;0.28;;;17.50;99.90;;;;;;4989477;28;21423;-75
2022/03/01 12:27:18;;;;;;;0.38;0.38;;;17.60;99.90;;;;;;4991093;28;20133;-76
2022/03/01 12:29:47;;;;;;;0.10;0.10;;;17.80;99.90;;;;;;4992474;28;20019;-76
2022/03/01 12:32:13;;;;;;;1.67;0.80;;;17.70;99.90;;;;;;4992279;28;20072;-75
2022/03/01 12:34:41;;;;;;;0.60;0.57;;;17.90;99.90;;;;;;4991434;28;20026;-75
2022/03/01 12:37:14;;;;;;;0.95;0.40;;;17.80;99.90;;;;;;4989441;28;20027;-76
2022/03/01 12:39:40;;;;;;;0.75;0.65;;;17.80;99.90;;;;;;4992437;28;20431;-76
2022/03/01 12:42:07;;;;;;;0.20;0.17;;;17.80;99.90;;;;;;4999146;28;20462;-75
2022/03/01 12:44:36;;;;;;;1.23;0.77;;;17.70;99.90;;;;;;4991795;28;20080;-75
2022/03/01 12:47:05;;;;;;;0.50;0.50;;;17.60;99.90;;;;;;4991329;28;20375;-76
2022/03/01 12:49:34;;;;;;;4.28;0.85;;;17.60;99.90;;;;;;4991981;28;20110;-75
2022/03/01 12:51:59;;;;;;;0.65;0.65;;;17.70;99.90;;;;;;4992304;28;20049;-77
2022/03/01 12:54:28;;;;;;;0.20;0.20;;;17.60;99.90;;;;;;5002004;28;20019;-75